CSCL Oceania — VRBI2 — position and weather

sailwx.info

Track history (hours):
 
Tides and Currents Weather Stations Pressure Air Temp Water Temp Dewpoint Dewpoint Depression Visibility Wind Speed Wind Dir Waves Ship Positions

CSCL Oceania

Last reported at 2014-Dec-21 00:00 UTC. Time now 2014-Dec-23 00:11 UTC.
Position S 05°30' E 084°00'.

Length 334 m; beam 42.8 m; draft 14.5 m.

Type: Cargo ship. MMSI: 477020300.

Wind from 230 at 20 knots

Barometer 1010.6 mb
Air temperature 30.0 ° C
Visibility: greater than 10.8 NM
Dewpoint 28.7 ° C
Water temperature 28.0 ° C

Date/timePositionNaut miles runAvg speedWind from/ knotsBaromVisibWave heightAir tempDewpointWater temp
2014-Dec-21 00:00S 05°30' E 084°00'18715.6 230 / 201010.610.8 30.028.728.0
2014-Dec-20 12:00S 03°12' E 086°06'19115.9 230 / 151010.610.8 30.028.731.0
2014-Dec-20 00:00S 00°54' E 088°18'26814.9 200 / 351011.6 2.2 26.026.030.0
2014-Dec-19 06:00N 02°24' E 091°18'   230 / 81011.510.8 1.531.026.9
2014-Dec-16 15:31N 01°54' E 102°22'1212.2
2014-Dec-16 14:32N 01°48' E 102°33'1212.6
2014-Dec-16 13:33N 01°42' E 102°44'6511.9
2014-Dec-16 08:06N 01°14' E 103°42'4 6.8
2014-Dec-16 07:33N 01°17' E 103°45'0 0.0
2014-Dec-16 06:32N 01°17' E 103°45'0 0.0
2014-Dec-16 05:33N 01°17' E 103°45'0 0.0
2014-Dec-16 04:33N 01°17' E 103°45'0 0.0
2014-Dec-16 03:32N 01°17' E 103°45'0 0.0
2014-Dec-16 02:33N 01°17' E 103°45'0 0.0
2014-Dec-16 01:06N 01°17' E 103°45'0 0.0
2014-Dec-15 23:33N 01°17' E 103°45'0 0.0
2014-Dec-15 22:33N 01°17' E 103°45'0 0.0
2014-Dec-15 21:27N 01°17' E 103°45'0 0.0
2014-Dec-15 20:33N 01°17' E 103°45'0 0.0
2014-Dec-15 19:33N 01°17' E 103°45'0 0.0
2014-Dec-15 18:33N 01°17' E 103°45'0 0.0
2014-Dec-15 17:33N 01°17' E 103°45'0 0.0
2014-Dec-15 16:30N 01°17' E 103°45'0 0.0
2014-Dec-15 15:33N 01°17' E 103°45'2 2.4
2014-Dec-15 14:34N 01°15' E 103°47'6 6.4
2014-Dec-15 13:33N 01°13' E 103°53'3 3.0
2014-Dec-15 12:33N 01°14' E 103°56'1211.6
2014-Dec-15 11:33N 01°16' E 104°07'  
2014-Dec-11 13:27N 22°18' E 114°06'2 0.2
2014-Dec-11 00:08N 22°20' E 114°07'  
Track history (hours):
 
Tides and Currents Weather Stations Pressure Air Temp Water Temp Dewpoint Dewpoint Depression Visibility Wind Speed Wind Dir Waves Ship Positions

CSCL Oceania

Last reported at 2014-Dec-21 00:00 UTC. Time now 2014-Dec-23 00:11 UTC.
Position S 05°30' E 084°00'.

Length 334 m; beam 42.8 m; draft 14.5 m.

Type: Cargo ship. MMSI: 477020300.

Wind from 230 at 20 knots

Barometer 1010.6 mb
Air temperature 30.0 ° C
Visibility: greater than 10.8 NM
Dewpoint 28.7 ° C
Water temperature 28.0 ° C

Date/timePositionNaut miles runAvg speedWind from/ knotsBaromVisibWave heightAir tempDewpointWater temp
2014-Dec-21 00:00S 05°30' E 084°00'18715.6 230 / 201010.610.8 30.028.728.0
2014-Dec-20 12:00S 03°12' E 086°06'19115.9 230 / 151010.610.8 30.028.731.0
2014-Dec-20 00:00S 00°54' E 088°18'26814.9 200 / 351011.6 2.2 26.026.030.0
2014-Dec-19 06:00N 02°24' E 091°18'   230 / 81011.510.8 1.531.026.9
2014-Dec-16 15:31N 01°54' E 102°22'1212.2
2014-Dec-16 14:32N 01°48' E 102°33'1212.6
2014-Dec-16 13:33N 01°42' E 102°44'6511.9
2014-Dec-16 08:06N 01°14' E 103°42'4 6.8
2014-Dec-16 07:33N 01°17' E 103°45'0 0.0
2014-Dec-16 06:32N 01°17' E 103°45'0 0.0
2014-Dec-16 05:33N 01°17' E 103°45'0 0.0
2014-Dec-16 04:33N 01°17' E 103°45'0 0.0
2014-Dec-16 03:32N 01°17' E 103°45'0 0.0
2014-Dec-16 02:33N 01°17' E 103°45'0 0.0
2014-Dec-16 01:06N 01°17' E 103°45'0 0.0
2014-Dec-15 23:33N 01°17' E 103°45'0 0.0
2014-Dec-15 22:33N 01°17' E 103°45'0 0.0
2014-Dec-15 21:27N 01°17' E 103°45'0 0.0
2014-Dec-15 20:33N 01°17' E 103°45'0 0.0
2014-Dec-15 19:33N 01°17' E 103°45'0 0.0
2014-Dec-15 18:33N 01°17' E 103°45'0 0.0
2014-Dec-15 17:33N 01°17' E 103°45'0 0.0
2014-Dec-15 16:30N 01°17' E 103°45'0 0.0
2014-Dec-15 15:33N 01°17' E 103°45'2 2.4
2014-Dec-15 14:34N 01°15' E 103°47'6 6.4
2014-Dec-15 13:33N 01°13' E 103°53'3 3.0
2014-Dec-15 12:33N 01°14' E 103°56'1211.6
2014-Dec-15 11:33N 01°16' E 104°07'  
2014-Dec-11 13:27N 22°18' E 114°06'2 0.2
2014-Dec-11 00:08N 22°20' E 114°07'  

Dump ship's entire track history